Barra do Mendes, Brazil
Current Conditions -  °F | °C
As of 12:00 AM on Thursday 23 Oct 2014 (Local Time) from SBPL Reporting Station
Clear Clear  
Wind Chill: 82°   Ceiling: Unl
Heat Index: 83°   Visibility: 6mi
Dew Point: 63°   Wind: 13mph
Humidity: 51%   Direction: 150°SSE
Pressure: 30"   Gusts: NA
Location:  11.81°S, 42.06°W
Report Text: SBPL 230300Z 15011KT CAVOK 28/17 Q1016
Loading
Personal Weather Stations






























Interactive Weather Map
Tropical Storm Tracking
New forecast layout! Learn more

10-Day Weather Forecast

Advertisements
Track Severe Weather on mobile